Time;durP1;ratioP1;P1;durP2;ratioP2;P2;SDS_P1;SDS_P2;PMS_P1;PMS_P2;Temp;Humidity;BMP_temperature;BMP_pressure;BME280_temperature;BME280_humidity;BME280_pressure;Samples;Min_cycle;Max_cycle;Signal;HPM_P1;HPM_P2
2022/04/26 03:36:44;;;;;;;1.98;0.50;;;23.80;65.50;;;;;;5107495;22;20098;-62
2022/04/26 03:38:48;;;;;;;1.67;0.65;;;23.90;65.70;;;;;;5119076;22;20024;-63
2022/04/26 03:40:50;;;;;;;1.23;0.60;;;23.90;65.70;;;;;;5108199;23;20039;-62
2022/04/26 03:42:52;;;;;;;0.40;0.40;;;23.90;65.70;;;;;;5111540;22;20589;-62
2022/04/26 03:44:54;;;;;;;1.05;0.77;;;23.90;65.80;;;;;;5119292;22;20086;-62
2022/04/26 03:46:57;;;;;;;1.10;0.70;;;23.90;65.90;;;;;;5136340;22;20419;-61
2022/04/26 03:48:59;;;;;;;0.60;0.50;;;23.90;66.00;;;;;;5111475;22;20137;-62
2022/04/26 03:51:01;;;;;;;1.45;0.50;;;23.90;66.00;;;;;;5114851;22;20326;-62
2022/04/26 03:53:04;;;;;;;1.75;0.95;;;23.90;66.10;;;;;;5114732;23;20028;-62
2022/04/26 03:55:06;;;;;;;2.33;0.80;;;23.90;66.10;;;;;;5110891;22;20032;-62
2022/04/26 03:57:10;;;;;;;0.88;0.50;;;23.90;66.20;;;;;;5110958;23;20509;-64
2022/04/26 03:59:12;;;;;;;0.82;0.52;;;23.90;66.20;;;;;;5115568;23;20069;-61
2022/04/26 04:01:15;;;;;;;3.20;0.90;;;24.00;66.30;;;;;;5136223;22;20329;-63
2022/04/26 04:03:17;;;;;;;2.35;0.93;;;24.00;66.30;;;;;;5111318;22;20059;-60
2022/04/26 04:05:21;;;;;;;1.40;0.52;;;24.00;66.20;;;;;;5116545;22;20031;-61
2022/04/26 04:07:23;;;;;;;1.52;0.82;;;24.00;66.30;;;;;;5118898;22;20027;-61
2022/04/26 04:09:25;;;;;;;3.35;0.52;;;24.00;66.30;;;;;;5113713;22;20376;-60
2022/04/26 04:11:28;;;;;;;0.73;0.60;;;24.00;66.30;;;;;;5111341;22;20110;-59
2022/04/26 04:13:30;;;;;;;0.57;0.50;;;24.00;66.40;;;;;;5114616;23;20055;-60
2022/04/26 04:15:32;;;;;;;2.78;0.77;;;24.00;66.40;;;;;;5111843;22;20304;-62
2022/04/26 04:17:35;;;;;;;2.65;0.80;;;24.00;66.40;;;;;;5132987;22;20094;-61
2022/04/26 04:19:37;;;;;;;0.90;0.40;;;24.00;66.50;;;;;;5113114;23;20032;-67
2022/04/26 04:21:39;;;;;;;5.33;0.97;;;24.00;66.50;;;;;;5115297;22;20021;-63
2022/04/26 04:23:42;;;;;;;1.17;0.60;;;24.00;66.50;;;;;;5112738;22;20392;-63
2022/04/26 04:25:44;;;;;;;2.03;0.60;;;24.00;66.60;;;;;;5114041;22;20028;-61
2022/04/26 04:27:47;;;;;;;4.25;0.70;;;24.00;66.70;;;;;;5119500;22;20114;-64
2022/04/26 04:29:51;;;;;;;2.88;0.60;;;24.00;66.60;;;;;;5108623;23;20036;-62
2022/04/26 04:31:56;;;;;;;1.63;0.40;;;24.00;66.60;;;;;;5086247;23;20024;-62
2022/04/26 04:34:02;;;;;;;1.20;0.60;;;24.00;66.60;;;;;;5115653;22;20098;-61
2022/04/26 04:36:05;;;;;;;1.30;0.80;;;24.00;66.80;;;;;;5118461;22;20036;-62
2022/04/26 04:38:09;;;;;;;11.63;0.93;;;24.00;66.80;;;;;;5109187;22;20514;-61
2022/04/26 04:40:12;;;;;;;2.75;0.73;;;24.00;66.80;;;;;;5111046;23;20024;-63
2022/04/26 04:42:14;;;;;;;4.15;0.73;;;24.00;66.80;;;;;;5089693;23;20092;-65
2022/04/26 04:44:17;;;;;;;1.42;0.57;;;24.00;66.90;;;;;;5118336;22;20024;-62
2022/04/26 04:46:19;;;;;;;2.75;0.77;;;24.00;67.00;;;;;;5113785;22;20166;-65
2022/04/26 04:48:21;;;;;;;1.40;0.88;;;24.00;67.00;;;;;;5110958;23;20050;-63
2022/04/26 04:50:23;;;;;;;1.92;0.57;;;24.00;67.00;;;;;;5118943;22;20032;-63
2022/04/26 04:52:26;;;;;;;1.73;0.50;;;24.00;67.00;;;;;;5114059;22;20028;-64
2022/04/26 04:54:28;;;;;;;2.00;0.93;;;24.00;67.00;;;;;;5117034;22;20110;-62
2022/04/26 04:56:30;;;;;;;0.93;0.60;;;24.00;67.10;;;;;;5145781;22;20597;-62
2022/04/26 04:58:32;;;;;;;0.85;0.40;;;24.00;67.10;;;;;;5119336;22;20942;-65
2022/04/26 05:00:35;;;;;;;2.50;1.00;;;24.00;67.10;;;;;;5109925;22;20028;-63
2022/04/26 05:02:37;;;;;;;1.48;0.52;;;24.00;67.00;;;;;;5109575;23;20040;-65
2022/04/26 05:04:42;;;;;;;1.40;0.68;;;24.00;67.10;;;;;;5118412;22;20702;-64
2022/04/26 05:06:44;;;;;;;0.63;0.47;;;24.00;67.10;;;;;;5112799;23;20100;-66
2022/04/26 05:08:49;;;;;;;0.77;0.70;;;24.00;67.10;;;;;;5112754;22;20028;-63
2022/04/26 05:10:52;;;;;;;0.95;0.50;;;24.00;67.10;;;;;;5116273;22;20036;-64
2022/04/26 05:12:54;;;;;;;3.42;0.77;;;24.00;67.20;;;;;;5121706;22;20104;-63
2022/04/26 05:14:57;;;;;;;2.60;0.97;;;24.00;67.10;;;;;;5116240;22;20032;-64
2022/04/26 05:16:59;;;;;;;4.20;0.52;;;24.10;67.10;;;;;;5113810;22;21029;-62
2022/04/26 05:19:01;;;;;;;1.15;0.60;;;24.10;67.10;;;;;;5121211;22;20339;-63
2022/04/26 05:21:08;;;;;;;2.63;0.60;;;24.10;67.00;;;;;;5115040;22;20032;-63
2022/04/26 05:25:33;;;;;;;3.13;0.80;;;24.10;67.10;;;;;;5113378;23;20195;-61
2022/04/26 05:27:35;;;;;;;1.45;0.65;;;24.10;67.10;;;;;;5115484;22;20034;-63
2022/04/26 05:29:41;;;;;;;2.17;0.95;;;24.10;67.20;;;;;;5114751;22;20115;-65
2022/04/26 05:31:43;;;;;;;4.50;0.80;;;24.10;67.10;;;;;;5113235;23;20350;-63
2022/04/26 05:33:45;;;;;;;0.82;0.60;;;24.10;67.10;;;;;;5111421;23;20500;-62
2022/04/26 05:35:48;;;;;;;3.22;0.75;;;24.20;67.20;;;;;;5107956;23;20070;-61
2022/04/26 05:37:53;;;;;;;0.65;0.50;;;24.20;67.10;;;;;;5117162;22;20109;-62
2022/04/26 05:39:56;;;;;;;2.13;0.57;;;24.20;67.10;;;;;;5119547;23;20094;-62
2022/04/26 05:41:58;;;;;;;3.03;1.05;;;24.20;67.00;;;;;;5114796;22;20028;-60
2022/04/26 05:44:00;;;;;;;8.88;1.38;;;24.20;67.00;;;;;;5111232;23;20062;-63
2022/04/26 05:46:02;;;;;;;2.95;0.70;;;24.20;67.10;;;;;;5121723;22;20565;-61
2022/04/26 05:48:05;;;;;;;2.17;0.80;;;24.20;67.20;;;;;;5113868;22;20050;-65
2022/04/26 05:50:09;;;;;;;1.48;1.00;;;24.20;67.20;;;;;;5113957;22;20028;-64
2022/04/26 05:52:11;;;;;;;2.80;0.70;;;24.20;67.30;;;;;;5116407;22;20126;-64
2022/04/26 05:54:13;;;;;;;1.05;0.68;;;24.10;67.30;;;;;;5119591;22;20031;-64
2022/04/26 05:56:15;;;;;;;2.88;1.20;;;24.20;67.40;;;;;;5114119;22;20108;-65
2022/04/26 05:58:17;;;;;;;3.58;0.98;;;24.20;67.40;;;;;;5113898;22;20106;-63
2022/04/26 06:00:20;;;;;;;3.95;1.40;;;24.20;67.40;;;;;;5120219;23;20050;-60
2022/04/26 06:02:22;;;;;;;4.20;1.07;;;24.20;67.40;;;;;;5116028;22;20027;-61
2022/04/26 06:04:27;;;;;;;4.07;1.50;;;24.20;67.40;;;;;;5116070;22;20031;-63
2022/04/26 06:06:29;;;;;;;4.82;1.48;;;24.20;67.50;;;;;;5122650;23;20084;-62
2022/04/26 06:08:32;;;;;;;2.50;1.13;;;24.20;67.50;;;;;;5119221;22;20056;-61
2022/04/26 06:10:35;;;;;;;6.47;1.63;;;24.20;67.40;;;;;;5114871;22;20273;-61
2022/04/26 06:12:39;;;;;;;4.32;1.42;;;24.20;67.50;;;;;;5115839;22;20544;-60
2022/04/26 06:14:41;;;;;;;4.70;1.67;;;24.20;67.60;;;;;;5146242;22;20058;-61
2022/04/26 06:16:43;;;;;;;3.10;1.88;;;24.20;68.20;;;;;;5118015;23;20024;-63
2022/04/26 06:18:46;;;;;;;5.10;2.10;;;24.20;67.70;;;;;;5116572;22;20101;-63
2022/04/26 06:20:48;;;;;;;3.70;2.25;;;24.20;67.70;;;;;;5120110;22;20085;-61
2022/04/26 06:22:50;;;;;;;2.95;2.05;;;24.20;67.70;;;;;;5115874;23;20054;-63
2022/04/26 06:24:52;;;;;;;3.93;2.60;;;24.20;67.70;;;;;;5119896;22;20600;-62
2022/04/26 06:26:54;;;;;;;4.28;3.08;;;24.20;67.70;;;;;;5117291;23;20036;-62
2022/04/26 06:28:56;;;;;;;5.38;2.95;;;24.20;67.70;;;;;;5124195;22;20032;-62
2022/04/26 06:30:58;;;;;;;7.00;3.30;;;24.20;67.70;;;;;;5123243;22;20031;-61
2022/04/26 06:33:00;;;;;;;4.47;3.50;;;24.20;67.70;;;;;;5122581;22;20039;-62
2022/04/26 06:35:03;;;;;;;5.63;3.85;;;24.20;67.80;;;;;;5129944;23;20032;-62
2022/04/26 06:37:05;;;;;;;4.50;3.90;;;24.20;67.80;;;;;;5124487;22;20020;-63
2022/04/26 06:39:07;;;;;;;7.30;4.50;;;24.20;67.70;;;;;;5118315;23;20042;-66
2022/04/26 06:41:09;;;;;;;5.95;3.97;;;24.20;67.70;;;;;;5124691;22;20082;-66
2022/04/26 06:43:11;;;;;;;6.55;4.78;;;24.20;67.80;;;;;;5122711;22;20714;-61
2022/04/26 06:48:33;;;;;;;11.82;6.25;;;24.20;67.80;;;;;;5152617;22;20418;-68
2022/04/26 06:50:36;;;;;;;8.15;6.70;;;24.20;67.60;;;;;;5140179;23;20053;-69
2022/04/26 06:52:38;;;;;;;9.38;7.05;;;24.20;67.70;;;;;;5139341;22;20022;-68
2022/04/26 06:54:41;;;;;;;8.60;7.20;;;24.10;67.50;;;;;;5128920;22;20322;-68
2022/04/26 06:59:41;;;;;;;11.52;10.43;;;24.10;67.70;;;;;;5102221;23;20876;-63
2022/04/26 07:01:43;;;;;;;14.80;13.40;;;24.10;67.50;;;;;;5103341;23;20024;-65
2022/04/26 07:03:45;;;;;;;16.15;14.85;;;24.00;67.70;;;;;;5107619;23;20021;-65
2022/04/26 07:05:51;;;;;;;19.42;17.77;;;24.10;67.80;;;;;;5087809;23;20782;-65
2022/04/26 07:07:53;;;;;;;19.92;17.80;;;24.10;67.80;;;;;;5082521;23;20078;-63
2022/04/26 07:09:55;;;;;;;20.20;18.42;;;24.00;67.80;;;;;;5085339;23;20032;-66
2022/04/26 07:11:57;;;;;;;23.42;20.45;;;24.10;68.00;;;;;;5089186;23;20122;-70
2022/04/26 07:13:59;;;;;;;20.63;18.73;;;24.10;68.00;;;;;;5088411;23;20063;-64
2022/04/26 07:16:02;;;;;;;17.50;15.35;;;24.00;67.80;;;;;;5081720;23;20120;-64
2022/04/26 07:18:04;;;;;;;13.65;12.35;;;24.10;67.70;;;;;;5089904;23;20407;-65
2022/04/26 07:20:08;;;;;;;12.05;10.85;;;24.10;67.60;;;;;;5088374;23;20098;-66
2022/04/26 07:22:10;;;;;;;11.32;10.32;;;24.10;67.60;;;;;;5082542;23;20354;-66
2022/04/26 07:24:13;;;;;;;9.00;8.20;;;24.10;67.60;;;;;;5088716;23;20955;-69
2022/04/26 07:26:15;;;;;;;8.25;7.55;;;24.10;67.60;;;;;;5096034;23;20630;-70
2022/04/26 07:28:19;;;;;;;7.20;6.50;;;24.00;68.20;;;;;;5085243;23;21086;-67
2022/04/26 07:30:21;;;;;;;7.47;6.78;;;24.00;67.70;;;;;;5091864;23;20035;-65
2022/04/26 07:34:45;;;;;;;7.30;6.60;;;24.00;67.70;;;;;;5060699;23;20803;-67
2022/04/26 07:37:07;;;;;;;8.10;7.30;;;24.00;67.80;;;;;;5096764;23;20039;-62
2022/04/26 07:39:10;;;;;;;15.25;7.43;;;24.00;67.80;;;;;;5093594;23;20308;-63
2022/04/26 07:41:12;;;;;;;8.02;6.03;;;24.00;68.00;;;;;;5098248;23;20031;-65
2022/04/26 07:43:15;;;;;;;9.07;6.50;;;24.00;68.00;;;;;;5122737;23;20592;-62
2022/04/26 07:45:17;;;;;;;8.23;6.25;;;23.90;68.00;;;;;;5095245;23;20254;-65
2022/04/26 07:47:22;;;;;;;6.82;5.80;;;23.90;68.10;;;;;;5094379;23;20056;-65
2022/04/26 07:49:26;;;;;;;7.28;5.65;;;23.90;68.20;;;;;;5100794;23;20510;-66
2022/04/26 07:51:30;;;;;;;6.85;5.72;;;23.90;68.20;;;;;;5097879;23;20923;-63
2022/04/26 07:53:32;;;;;;;6.55;5.50;;;23.90;68.20;;;;;;5092254;23;20024;-63
2022/04/26 07:55:38;;;;;;;6.40;5.78;;;23.90;68.20;;;;;;5094938;23;20525;-64
2022/04/26 07:57:40;;;;;;;5.97;5.20;;;23.90;68.30;;;;;;5099297;23;20116;-62
2022/04/26 07:59:42;;;;;;;5.97;5.30;;;23.80;68.30;;;;;;5093775;23;20252;-65
2022/04/26 08:01:45;;;;;;;5.43;4.70;;;23.80;68.30;;;;;;5094484;23;20954;-64
2022/04/26 08:03:47;;;;;;;6.72;4.60;;;23.80;68.30;;;;;;5095254;23;20024;-63
2022/04/26 08:05:50;;;;;;;5.17;4.17;;;23.80;68.40;;;;;;5094925;23;20363;-65
2022/04/26 08:07:52;;;;;;;4.80;4.07;;;23.80;68.40;;;;;;5094375;23;20027;-65
2022/04/26 08:09:54;;;;;;;4.88;3.75;;;23.80;68.40;;;;;;5092741;23;20064;-65
2022/04/26 08:11:56;;;;;;;4.43;3.70;;;23.80;68.50;;;;;;5097101;23;20131;-63
2022/04/26 08:13:59;;;;;;;4.97;3.67;;;23.80;68.50;;;;;;5092827;23;20039;-64
2022/04/26 08:16:01;;;;;;;4.60;3.37;;;23.80;68.50;;;;;;5092268;23;20032;-64
2022/04/26 08:18:03;;;;;;;4.15;3.22;;;23.80;68.50;;;;;;5096693;23;20421;-67
2022/04/26 08:20:06;;;;;;;3.85;2.83;;;23.80;68.60;;;;;;5092395;23;20036;-69
2022/04/26 08:22:09;;;;;;;3.97;2.92;;;23.80;68.60;;;;;;5084128;23;20045;-66
2022/04/26 08:28:53;;;;;;;3.10;2.38;;;23.70;68.70;;;;;;5088661;23;20928;-61
2022/04/26 08:30:56;;;;;;;3.72;2.47;;;23.70;68.70;;;;;;5087625;23;20447;-60
2022/04/26 08:32:57;;;;;;;;;;;23.70;68.80;;;;;;5093269;23;20035;-60
2022/04/26 08:34:59;;;;;;;2.35;1.92;;;23.70;68.80;;;;;;5091250;23;19915;-61
2022/04/26 08:37:02;;;;;;;2.58;1.60;;;23.70;68.90;;;;;;5083177;23;20123;-61
2022/04/26 08:39:04;;;;;;;2.65;1.80;;;23.70;68.90;;;;;;5088694;23;20127;-61
2022/04/26 08:41:06;;;;;;;2.45;1.88;;;23.70;69.00;;;;;;5090002;23;20032;-62
2022/04/26 08:43:08;;;;;;;2.30;1.70;;;23.70;69.00;;;;;;5086408;23;20132;-62
2022/04/26 08:45:13;;;;;;;1.65;1.40;;;23.70;68.90;;;;;;5089079;23;20032;-62
2022/04/26 08:52:06;;;;;;;1.75;1.30;;;23.70;69.00;;;;;;5086982;23;20028;-62
2022/04/26 08:54:08;;;;;;;1.90;1.20;;;23.70;69.00;;;;;;5087567;23;20243;-61
2022/04/26 08:56:11;;;;;;;2.05;1.40;;;23.70;69.00;;;;;;5089052;23;20486;-61
2022/04/26 08:58:14;;;;;;;1.98;1.23;;;23.70;69.00;;;;;;5093276;23;20081;-63
2022/04/26 09:00:17;;;;;;;2.38;1.17;;;23.70;69.00;;;;;;5088494;23;20020;-62
2022/04/26 09:02:23;;;;;;;1.88;1.30;;;23.70;69.00;;;;;;5080378;23;20036;-61
2022/04/26 09:04:25;;;;;;;1.65;1.10;;;23.70;69.10;;;;;;5085838;23;20521;-63
2022/04/26 09:06:40;;;;;;;1.63;1.15;;;23.70;69.10;;;;;;5091648;23;20060;-61
2022/04/26 09:08:47;;;;;;;2.05;1.00;;;23.70;69.10;;;;;;5091696;23;20048;-64
2022/04/26 09:10:50;;;;;;;1.60;1.10;;;23.60;69.20;;;;;;5094140;23;20021;-62
2022/04/26 09:13:09;;;;;;;1.35;0.90;;;23.60;69.10;;;;;;5089010;23;20106;-63
2022/04/26 09:15:16;;;;;;;1.92;1.20;;;23.60;69.20;;;;;;5115099;23;20028;-65
2022/04/26 09:17:20;;;;;;;1.17;1.00;;;23.60;68.80;;;;;;5086942;23;20108;-66
2022/04/26 09:19:22;;;;;;;1.88;1.30;;;23.60;69.30;;;;;;5089755;23;20104;-66
2022/04/26 09:21:27;;;;;;;1.58;1.02;;;23.60;69.40;;;;;;5092703;23;20035;-62
2022/04/26 09:23:30;;;;;;;1.90;1.27;;;23.60;69.40;;;;;;5090020;23;20944;-64
2022/04/26 09:25:32;;;;;;;1.15;0.88;;;23.60;69.40;;;;;;5088455;23;20029;-61
2022/04/26 09:27:39;;;;;;;1.73;1.10;;;23.60;69.50;;;;;;5086420;23;20115;-60
2022/04/26 09:29:48;;;;;;;1.30;1.08;;;23.60;69.50;;;;;;5118017;23;20024;-60
2022/04/26 09:32:03;;;;;;;1.83;1.30;;;23.60;69.80;;;;;;5094733;23;20039;-73
2022/04/26 09:34:14;;;;;;;2.25;1.50;;;23.60;69.50;;;;;;5094958;23;20031;-64
2022/04/26 09:36:18;;;;;;;3.58;2.13;;;23.60;69.00;;;;;;5094297;23;20655;-70
2022/04/26 09:38:31;;;;;;;4.28;2.05;;;23.60;68.60;;;;;;5095405;23;21096;-67
2022/04/26 09:40:37;;;;;;;4.30;2.20;;;23.60;68.50;;;;;;5098299;23;20150;-65
2022/04/26 09:42:39;;;;;;;2.97;1.80;;;23.60;68.50;;;;;;5086832;23;20139;-65
2022/04/26 09:44:42;;;;;;;2.42;1.55;;;23.60;68.70;;;;;;5087455;23;20036;-64
2022/04/26 09:46:48;;;;;;;2.90;1.48;;;23.50;68.90;;;;;;5094632;23;20203;-66
2022/04/26 09:48:52;;;;;;;3.17;1.25;;;23.50;69.10;;;;;;5097957;23;20544;-63
2022/04/26 09:50:54;;;;;;;1.63;1.10;;;23.50;69.40;;;;;;5089779;23;20573;-62
2022/04/26 09:52:56;;;;;;;8.45;1.10;;;23.50;69.40;;;;;;5091534;23;20025;-65
2022/04/26 09:55:00;;;;;;;3.97;1.20;;;23.50;69.60;;;;;;5096020;23;20036;-62
2022/04/26 09:57:06;;;;;;;4.72;1.27;;;23.60;69.80;;;;;;5093206;23;20035;-61
2022/04/26 09:59:11;;;;;;;2.38;1.00;;;23.90;69.30;;;;;;5089916;23;20132;-62
2022/04/26 10:01:14;;;;;;;2.60;1.10;;;24.50;68.20;;;;;;5088293;23;20036;-62
2022/04/26 10:03:24;;;;;;;1.30;0.70;;;25.00;66.90;;;;;;5094806;23;20725;-61
2022/04/26 10:05:31;;;;;;;1.17;0.70;;;25.60;65.80;;;;;;5096432;23;20031;-62
2022/04/26 10:07:36;;;;;;;2.45;0.85;;;26.00;64.80;;;;;;5095747;23;20552;-61
2022/04/26 10:09:39;;;;;;;0.80;0.60;;;26.50;63.90;;;;;;5092454;23;20024;-62
2022/04/26 10:11:41;;;;;;;0.50;0.50;;;26.80;63.10;;;;;;5089494;23;20056;-60
2022/04/26 10:13:45;;;;;;;1.02;0.63;;;27.20;63.00;;;;;;5089918;23;20052;-62
2022/04/26 10:15:47;;;;;;;1.20;0.85;;;27.60;61.80;;;;;;5092904;23;21151;-64
2022/04/26 10:17:50;;;;;;;0.50;0.50;;;27.90;61.20;;;;;;5090198;23;20032;-61
2022/04/26 10:19:52;;;;;;;1.25;0.70;;;28.20;60.80;;;;;;5093181;23;20262;-62
2022/04/26 10:21:54;;;;;;;1.03;0.60;;;28.40;60.40;;;;;;5094136;23;20029;-60
2022/04/26 10:24:03;;;;;;;1.38;0.47;;;28.40;60.10;;;;;;5092089;23;20028;-62
2022/04/26 10:26:24;;;;;;;0.68;0.60;;;28.20;60.40;;;;;;5093483;23;20164;-62
2022/04/26 10:28:29;;;;;;;0.52;0.50;;;27.90;60.70;;;;;;5091175;23;20025;-61
2022/04/26 10:30:52;;;;;;;0.60;0.40;;;27.70;61.20;;;;;;5089213;23;20620;-62
2022/04/26 10:32:54;;;;;;;0.77;0.57;;;27.50;61.80;;;;;;5094242;23;20020;-65
2022/04/26 10:34:57;;;;;;;0.40;0.40;;;27.30;62.20;;;;;;5086613;23;20032;-62
2022/04/26 10:37:09;;;;;;;1.02;0.50;;;27.10;62.50;;;;;;5087757;23;20029;-61
2022/04/26 10:39:21;;;;;;;0.80;0.35;;;26.90;62.80;;;;;;5089701;23;20823;-62
2022/04/26 10:41:37;;;;;;;0.40;0.40;;;26.80;63.00;;;;;;5090085;23;20596;-61
2022/04/26 10:43:41;;;;;;;1.65;0.40;;;26.70;63.40;;;;;;5086974;23;20430;-62
2022/04/26 10:46:13;;;;;;;0.40;0.40;;;26.60;63.60;;;;;;5093049;23;20119;-62
2022/04/26 10:48:27;;;;;;;0.35;0.35;;;26.40;63.70;;;;;;5091899;23;20103;-63
2022/04/26 10:50:32;;;;;;;0.50;0.40;;;26.40;64.00;;;;;;5090608;23;20039;-63
2022/04/26 10:52:38;;;;;;;0.45;0.43;;;26.30;64.10;;;;;;5089697;23;20031;-65
2022/04/26 10:54:55;;;;;;;1.25;0.40;;;26.20;64.30;;;;;;5087163;23;20033;-66
2022/04/26 10:56:57;;;;;;;1.42;0.65;;;26.10;64.40;;;;;;5089804;23;20028;-62
2022/04/26 10:59:00;;;;;;;0.88;0.40;;;26.10;64.60;;;;;;5091541;23;20075;-66
2022/04/26 11:01:02;;;;;;;1.30;0.50;;;26.00;64.70;;;;;;5098486;23;20039;-68
2022/04/26 11:03:07;;;;;;;0.70;0.30;;;25.90;64.80;;;;;;5094546;23;20857;-65
2022/04/26 11:05:11;;;;;;;0.30;0.30;;;25.90;64.90;;;;;;5095069;23;20029;-67
2022/04/26 11:07:18;;;;;;;0.63;0.50;;;25.80;65.00;;;;;;5098165;23;20052;-64
2022/04/26 11:09:20;;;;;;;1.02;0.50;;;25.80;65.10;;;;;;5106357;23;20513;-65
2022/04/26 11:11:22;;;;;;;0.30;0.30;;;25.70;65.20;;;;;;5102293;23;20024;-65
2022/04/26 11:13:34;;;;;;;1.13;0.60;;;25.70;65.30;;;;;;5098094;23;20094;-63
2022/04/26 11:15:37;;;;;;;1.85;0.60;;;25.60;65.30;;;;;;5098955;23;20131;-61
2022/04/26 11:17:40;;;;;;;2.63;0.80;;;25.60;66.00;;;;;;5101121;23;20032;-60
2022/04/26 11:19:54;;;;;;;1.73;0.90;;;25.50;66.20;;;;;;5105119;23;20020;-69
2022/04/26 11:21:57;;;;;;;2.47;1.00;;;25.50;66.10;;;;;;5114351;23;20075;-70
2022/04/26 11:29:27;;;;;;;1.50;1.10;;;25.40;64.60;;;;;;5057923;23;20348;-59
2022/04/26 11:31:40;;;;;;;4.18;1.20;;;25.30;64.90;;;;;;5094352;23;20072;-59
2022/04/26 11:33:48;;;;;;;;;;;25.30;65.10;;;;;;5103544;23;20128;-63
2022/04/26 11:35:53;;;;;;;2.78;0.90;;;25.30;65.40;;;;;;5104082;23;19923;-62
2022/04/26 11:38:08;;;;;;;1.40;1.00;;;25.20;65.50;;;;;;5105438;23;20020;-62
2022/04/26 11:40:11;;;;;;;1.35;0.85;;;25.20;65.70;;;;;;5102348;23;20047;-61
2022/04/26 11:42:14;;;;;;;1.63;0.90;;;25.20;65.90;;;;;;5098105;23;20033;-61
2022/04/26 11:44:16;;;;;;;2.57;1.17;;;25.10;65.80;;;;;;5093127;23;20103;-61
2022/04/26 11:46:18;;;;;;;1.02;0.77;;;25.10;65.90;;;;;;5096518;23;20337;-62
2022/04/26 11:48:33;;;;;;;1.03;0.70;;;25.10;66.00;;;;;;5098018;23;20032;-61
2022/04/26 11:50:35;;;;;;;2.10;0.70;;;25.10;66.20;;;;;;5099595;23;20024;-60
2022/04/26 11:52:37;;;;;;;0.85;0.68;;;25.10;66.60;;;;;;5091765;23;20096;-60
2022/04/26 11:54:39;;;;;;;0.98;0.60;;;25.00;66.60;;;;;;5094196;23;20984;-61
2022/04/26 11:56:44;;;;;;;1.35;0.52;;;25.00;66.60;;;;;;5100739;23;20024;-59
2022/04/26 11:58:46;;;;;;;2.58;0.50;;;25.00;66.60;;;;;;5098794;23;21076;-61
2022/04/26 12:01:07;;;;;;;1.27;0.40;;;25.00;66.70;;;;;;5096953;23;20025;-60
2022/04/26 12:03:09;;;;;;;4.18;1.00;;;25.00;66.80;;;;;;5098686;23;20032;-60
2022/04/26 12:05:12;;;;;;;1.87;0.60;;;24.90;66.80;;;;;;5095095;23;20854;-58
2022/04/26 12:07:15;;;;;;;1.00;0.60;;;24.90;66.90;;;;;;5095864;23;20353;-60
2022/04/26 12:09:17;;;;;;;1.00;0.60;;;24.80;67.00;;;;;;5100303;23;20028;-62
2022/04/26 12:11:28;;;;;;;5.65;1.00;;;24.80;67.00;;;;;;5092462;23;20028;-61
2022/04/26 12:13:33;;;;;;;1.42;0.57;;;24.80;67.40;;;;;;5117231;23;20024;-61
2022/04/26 12:15:38;;;;;;;1.63;0.63;;;24.80;67.50;;;;;;5094502;23;20157;-63
2022/04/26 12:17:40;;;;;;;2.92;0.57;;;24.80;67.40;;;;;;5096113;23;20025;-63
2022/04/26 12:19:45;;;;;;;1.77;0.80;;;24.80;67.50;;;;;;5100723;23;20024;-66
2022/04/26 12:21:54;;;;;;;0.93;0.50;;;24.70;67.40;;;;;;5092986;23;20549;-67
2022/04/26 12:24:20;;;;;;;3.03;0.50;;;24.70;67.40;;;;;;5093495;23;20534;-67
2022/04/26 12:26:22;;;;;;;0.50;0.50;;;24.70;67.40;;;;;;5101596;23;20032;-66
2022/04/26 12:28:25;;;;;;;0.60;0.60;;;24.70;67.40;;;;;;5094371;23;20028;-66
2022/04/26 12:30:30;;;;;;;0.73;0.52;;;24.60;67.40;;;;;;5094799;23;20664;-64
2022/04/26 12:32:41;;;;;;;0.73;0.52;;;24.60;67.50;;;;;;5097043;23;20024;-64
2022/04/26 12:34:58;;;;;;;0.43;0.43;;;24.60;67.50;;;;;;5097344;23;20931;-67
2022/04/26 12:37:17;;;;;;;1.02;0.50;;;24.60;67.50;;;;;;5094676;23;20032;-63
2022/04/26 12:39:20;;;;;;;1.27;0.57;;;24.50;67.60;;;;;;5090870;23;20032;-63
2022/04/26 12:41:21;;;;;;;;;;;24.50;67.70;;;;;;5091176;23;20545;-60
2022/04/26 12:43:32;;;;;;;0.60;0.40;;;24.50;68.40;;;;;;5098045;23;19919;-60
2022/04/26 12:45:34;;;;;;;0.75;0.50;;;24.50;68.40;;;;;;5097092;23;20270;-61
2022/04/26 12:52:33;;;;;;;8.65;1.13;;;24.40;68.30;;;;;;5099274;23;20187;-62
2022/04/26 12:54:37;;;;;;;0.82;0.47;;;24.50;68.50;;;;;;5091330;23;20024;-62
2022/04/26 12:56:40;;;;;;;0.98;0.40;;;24.40;68.30;;;;;;5098827;23;20499;-60
2022/04/26 12:58:44;;;;;;;1.85;0.60;;;24.40;68.50;;;;;;5094183;23;20072;-59
2022/04/26 13:00:50;;;;;;;2.15;0.47;;;24.40;68.50;;;;;;5091887;23;20688;-59
2022/04/26 13:02:59;;;;;;;1.85;0.50;;;24.40;68.50;;;;;;5085738;23;20028;-61
2022/04/26 13:05:01;;;;;;;0.45;0.40;;;24.40;68.60;;;;;;5094021;23;20512;-57
2022/04/26 13:07:04;;;;;;;0.95;0.52;;;24.30;68.60;;;;;;5098160;23;20021;-60
2022/04/26 13:09:06;;;;;;;4.17;0.47;;;24.30;69.00;;;;;;5097639;23;20033;-59
2022/04/26 13:11:09;;;;;;;1.70;0.60;;;24.30;68.80;;;;;;5095002;23;20079;-58
2022/04/26 13:13:13;;;;;;;2.42;0.60;;;24.20;69.30;;;;;;5101674;23;20040;-61
2022/04/26 13:15:15;;;;;;;1.25;0.50;;;24.20;68.70;;;;;;5096568;23;20114;-55
2022/04/26 13:17:20;;;;;;;0.60;0.47;;;24.20;68.80;;;;;;5095283;23;20039;-59
2022/04/26 13:19:22;;;;;;;0.88;0.43;;;24.20;68.80;;;;;;5097757;23;20028;-58
2022/04/26 13:21:24;;;;;;;0.65;0.47;;;24.20;68.80;;;;;;5100729;23;20033;-59
2022/04/26 13:23:29;;;;;;;0.30;0.30;;;24.20;68.90;;;;;;5095704;23;20133;-58
2022/04/26 13:25:32;;;;;;;1.55;0.55;;;24.20;68.90;;;;;;5095225;23;20288;-61
2022/04/26 13:27:37;;;;;;;0.80;0.60;;;24.20;69.10;;;;;;5099064;23;20043;-61
2022/04/26 13:29:39;;;;;;;1.02;0.30;;;24.10;69.40;;;;;;5098900;23;20021;-60
2022/04/26 13:31:42;;;;;;;4.95;0.60;;;24.10;69.40;;;;;;5094092;23;20482;-60
2022/04/26 13:33:45;;;;;;;1.48;0.50;;;24.10;69.30;;;;;;5091931;23;20056;-61
2022/04/26 13:35:48;;;;;;;1.85;0.50;;;24.10;69.30;;;;;;5098129;23;20032;-60
2022/04/26 13:37:52;;;;;;;1.38;0.60;;;24.10;69.40;;;;;;5096365;23;20087;-61
2022/04/26 13:39:57;;;;;;;1.05;0.70;;;24.10;69.60;;;;;;5093401;23;20136;-66
2022/04/26 13:41:59;;;;;;;1.35;0.73;;;24.10;69.60;;;;;;5091919;23;20537;-65
2022/04/26 13:44:01;;;;;;;0.73;0.43;;;24.10;69.40;;;;;;5100333;23;20162;-56
2022/04/26 13:46:04;;;;;;;1.23;0.70;;;24.10;69.20;;;;;;5093877;23;20137;-61
2022/04/26 13:48:14;;;;;;;4.97;1.05;;;24.10;69.30;;;;;;5095162;23;20781;-61
2022/04/26 13:50:16;;;;;;;2.60;0.70;;;24.10;69.20;;;;;;5093921;23;20039;-62
2022/04/26 13:52:20;;;;;;;3.90;0.93;;;24.10;69.40;;;;;;5098668;23;20033;-61
2022/04/26 13:54:22;;;;;;;7.63;1.10;;;24.00;69.50;;;;;;5095470;23;20035;-61
2022/04/26 13:56:24;;;;;;;3.03;0.57;;;24.00;69.60;;;;;;5093895;23;20035;-60
2022/04/26 13:58:27;;;;;;;2.95;0.70;;;24.00;69.50;;;;;;5096664;23;20055;-60
2022/04/26 14:00:30;;;;;;;1.13;0.60;;;24.00;69.40;;;;;;5099411;23;20020;-61
2022/04/26 14:02:35;;;;;;;1.40;0.60;;;24.00;69.40;;;;;;5093198;23;20799;-66
2022/04/26 14:04:37;;;;;;;1.77;0.70;;;24.00;69.50;;;;;;5095620;23;20033;-66
2022/04/26 14:06:39;;;;;;;2.15;1.10;;;24.00;68.60;;;;;;5100684;23;20139;-65
2022/04/26 14:08:43;;;;;;;1.77;1.20;;;24.00;67.90;;;;;;5092223;23;20168;-58
2022/04/26 14:10:45;;;;;;;6.95;1.50;;;24.00;68.00;;;;;;5093782;23;20040;-57
2022/04/26 14:12:47;;;;;;;1.92;0.93;;;24.00;68.30;;;;;;5098097;23;20028;-56
2022/04/26 14:21:51;;;;;;;1.02;0.90;;;23.90;69.10;;;;;;5094044;23;20742;-59
2022/04/26 14:23:53;;;;;;;1.53;0.80;;;23.90;69.30;;;;;;5091801;23;20033;-60
2022/04/26 14:25:55;;;;;;;1.02;0.73;;;23.80;69.30;;;;;;5095045;23;21022;-60
2022/04/26 14:27:57;;;;;;;0.85;0.50;;;23.80;69.30;;;;;;5093453;23;20029;-60
2022/04/26 14:30:00;;;;;;;1.27;0.60;;;23.80;69.30;;;;;;5113684;23;20028;-60
2022/04/26 14:32:02;;;;;;;2.00;0.63;;;23.80;69.30;;;;;;5096387;23;20024;-59
2022/04/26 14:34:04;;;;;;;0.60;0.52;;;23.80;69.50;;;;;;5095189;23;20595;-59
2022/04/26 14:36:06;;;;;;;0.68;0.40;;;23.80;69.50;;;;;;5095039;23;20028;-59
2022/04/26 14:38:10;;;;;;;0.60;0.40;;;23.80;69.40;;;;;;5091250;23;20501;-60
2022/04/26 14:40:12;;;;;;;;;;;23.80;69.40;;;;;;5099156;23;20033;-56
2022/04/26 14:42:14;;;;;;;0.50;0.50;;;23.80;69.40;;;;;;5093531;23;19947;-59
2022/04/26 14:44:16;;;;;;;0.32;0.32;;;23.80;69.50;;;;;;5087860;23;20956;-58
2022/04/26 14:46:18;;;;;;;0.47;0.47;;;23.80;69.40;;;;;;5100306;23;20028;-58
2022/04/26 14:48:20;;;;;;;0.95;0.60;;;23.80;69.50;;;;;;5094836;23;20817;-60
2022/04/26 14:50:22;;;;;;;0.70;0.60;;;23.70;69.50;;;;;;5092468;23;20446;-60
2022/04/26 14:52:27;;;;;;;0.60;0.43;;;23.70;69.60;;;;;;5095324;23;20035;-61
2022/04/26 14:54:29;;;;;;;0.50;0.47;;;23.70;69.70;;;;;;5100903;23;20099;-59
2022/04/26 14:56:31;;;;;;;1.65;0.52;;;23.70;69.70;;;;;;5093235;23;20090;-61
2022/04/26 14:58:34;;;;;;;6.90;0.80;;;23.60;69.90;;;;;;5093679;23;20354;-59
2022/04/26 15:00:36;;;;;;;1.73;0.50;;;23.60;70.00;;;;;;5099729;23;20434;-60